Terminal Aerodrome Forecast
Issued by NWS

Home | Current Version | Previous Version | Text Only | Print | Product List | Glossary On
Versions: 1 2 3 4 5 6 7 8 9 10 11 12 13 14 15 16 17 18 19 20
000
FTUS43 KICT 292338
TAFHUT
TAF
KHUT 292338Z 3000/3024 03010KT P6SM FEW050 SCT120
     FM300800 05005KT P6SM BKN070
     FM301100 08006KT P6SM VCSH OVC070
     FM301300 14005KT P6SM SCT250=

USA.gov is the U.S. government's official web portal to all federal, state and local government web resources and services.